Time;durP1;ratioP1;P1;durP2;ratioP2;P2;SDS_P1;SDS_P2;PMS_P1;PMS_P2;Temp;Humidity;BMP_temperature;BMP_pressure;BME280_temperature;BME280_humidity;BME280_pressure;Samples;Min_cycle;Max_cycle;Signal;HPM_P1;HPM_P2
2022/07/24 00:01:00;;;;;;;;;;;26.10;58.60;;;;;;6129659;23;20322;-80
2022/07/24 00:03:27;;;;;;;;;;;26.10;58.40;;;;;;6130572;23;20365;-81
2022/07/24 00:05:55;;;;;;;;;;;26.20;58.60;;;;;;6130093;23;19968;-84
2022/07/24 00:08:22;;;;;;;;;;;26.10;58.60;;;;;;6155523;23;19932;-83
2022/07/24 00:10:49;;;;;;;;;;;26.10;58.20;;;;;;6129347;23;19920;-82
2022/07/24 00:13:16;;;;;;;;;;;26.10;58.20;;;;;;6129247;23;20357;-81
2022/07/24 00:15:42;;;;;;;;;;;26.10;58.20;;;;;;6129457;23;19952;-81
2022/07/24 00:18:09;;;;;;;;;;;26.10;59.10;;;;;;6130817;23;19968;-84
2022/07/24 00:20:36;;;;;;;;;;;26.00;59.80;;;;;;6130909;23;19967;-81
2022/07/24 00:23:03;;;;;;;;;;;26.00;60.30;;;;;;6129340;23;19944;-80
2022/07/24 00:25:30;;;;;;;;;;;25.90;59.80;;;;;;6130858;23;19921;-85
2022/07/24 00:27:57;;;;;;;;;;;25.90;59.70;;;;;;6129514;23;19924;-81
2022/07/24 00:30:24;;;;;;;;;;;25.80;59.90;;;;;;6130252;23;19921;-82
2022/07/24 00:32:51;;;;;;;;;;;25.80;60.30;;;;;;6129201;23;19975;-83
2022/07/24 00:35:17;;;;;;;;;;;25.80;60.20;;;;;;6130224;23;19928;-82
2022/07/24 00:37:46;;;;;;;;;;;25.70;60.50;;;;;;6155439;23;19921;-82
2022/07/24 00:40:15;;;;;;;;;;;25.70;60.90;;;;;;6130245;23;19924;-83
2022/07/24 00:42:42;;;;;;;;;;;25.70;61.50;;;;;;6129190;23;20134;-86
2022/07/24 00:45:10;;;;;;;;;;;25.50;61.60;;;;;;6129930;23;20364;-83
2022/07/24 00:47:50;;;;;;;;;;;25.50;61.00;;;;;;6153504;23;20333;-82
2022/07/24 00:50:17;;;;;;;;;;;25.40;60.70;;;;;;6129328;23;19980;-87
2022/07/24 00:52:44;;;;;;;;;;;25.40;60.60;;;;;;6128644;23;19927;-82
2022/07/24 00:55:12;;;;;;;;;;;25.40;60.80;;;;;;6129374;23;19960;-82
2022/07/24 00:57:39;;;;;;;;;;;25.40;61.20;;;;;;6130206;23;19921;-81
2022/07/24 01:00:06;;;;;;;;;;;25.40;61.30;;;;;;6129214;23;19975;-83
2022/07/24 01:02:33;;;;;;;;;;;25.40;60.10;;;;;;6130007;23;19956;-84
2022/07/24 01:05:00;;;;;;;;;;;25.40;59.50;;;;;;6128712;23;20301;-87
2022/07/24 01:07:27;;;;;;;;;;;25.40;58.80;;;;;;6128114;23;19921;-83
2022/07/24 01:09:54;;;;;;;;;;;25.40;58.50;;;;;;6130454;23;19924;-87
2022/07/24 01:12:21;;;;;;;;;;;25.50;58.20;;;;;;6131717;23;19925;-87
2022/07/24 01:14:48;;;;;;;;;;;25.50;58.10;;;;;;6130951;23;19921;-86
2022/07/24 01:17:14;;;;;;;;;;;25.50;58.00;;;;;;6129009;23;19979;-83
2022/07/24 01:19:41;;;;;;;;;;;25.50;58.00;;;;;;6131673;23;19925;-83
2022/07/24 01:22:08;;;;;;;;;;;25.50;58.00;;;;;;6130353;23;19927;-82
2022/07/24 01:24:35;;;;;;;;;;;25.50;57.90;;;;;;6159913;23;19924;-81
2022/07/24 01:27:02;;;;;;;;;;;25.50;57.80;;;;;;6132444;23;19921;-86
2022/07/24 01:29:28;;;;;;;;;;;25.50;57.60;;;;;;6138663;23;19921;-86
2022/07/24 01:31:55;;;;;;;;;;;25.60;57.20;;;;;;6158361;23;19927;-83
2022/07/24 01:34:22;;;;;;;;;;;25.60;58.70;;;;;;6132288;23;19974;-81
2022/07/24 01:36:48;;;;;;;;;;;25.50;59.00;;;;;;6129187;23;19921;-81
2022/07/24 01:39:15;;;;;;;;;;;25.40;59.90;;;;;;6129954;23;20412;-80
2022/07/24 01:41:42;;;;;;;;;;;25.40;60.10;;;;;;6154914;23;19921;-82
2022/07/24 01:44:09;;;;;;;;;;;25.40;60.50;;;;;;6129861;23;19976;-82
2022/07/24 01:46:36;;;;;;;;;;;25.30;60.30;;;;;;6129271;23;19968;-86
2022/07/24 01:49:02;;;;;;;;;;;25.20;59.50;;;;;;6128571;23;19944;-83
2022/07/24 01:51:30;;;;;;;;;;;25.20;58.60;;;;;;6131940;23;19927;-80
2022/07/24 01:53:56;;;;;;;;;;;25.20;60.30;;;;;;6130194;23;20261;-84
2022/07/24 01:56:23;;;;;;;;;;;25.10;61.60;;;;;;6131264;23;20301;-81
2022/07/24 01:58:53;;;;;;;;;;;25.00;62.50;;;;;;6134135;23;19949;-85
2022/07/24 02:01:20;;;;;;;;;;;25.00;62.90;;;;;;6133673;23;19924;-82
2022/07/24 02:03:48;;;;;;;;;;;24.90;62.90;;;;;;6128504;23;20338;-86
2022/07/24 02:06:15;;;;;;;;;;;24.80;63.30;;;;;;6155510;23;19979;-86
2022/07/24 02:08:42;;;;;;;;;;;24.80;63.40;;;;;;6130138;23;20305;-84
2022/07/24 02:11:09;;;;;;;;;;;24.80;63.20;;;;;;6130615;23;20401;-84
2022/07/24 02:13:35;;;;;;;;;;;24.70;63.60;;;;;;6130317;23;19921;-87
2022/07/24 02:16:04;;;;;;;;;;;24.60;64.40;;;;;;6128924;23;19924;-82
2022/07/24 02:18:31;;;;;;;;;;;24.60;64.50;;;;;;6128755;23;20368;-82
2022/07/24 02:20:58;;;;;;;;;;;24.50;65.20;;;;;;6156316;23;20243;-84
2022/07/24 02:23:25;;;;;;;;;;;24.40;65.50;;;;;;6129771;23;19920;-86
2022/07/24 02:25:51;;;;;;;;;;;24.40;65.40;;;;;;6130261;23;20345;-82
2022/07/24 02:28:18;;;;;;;;;;;24.40;65.60;;;;;;6130478;23;19921;-84
2022/07/24 02:30:45;;;;;;;;;;;24.40;65.00;;;;;;6132864;23;19921;-83
2022/07/24 02:33:12;;;;;;;;;;;24.40;64.60;;;;;;6131821;23;19921;-86
2022/07/24 02:35:38;;;;;;;;;;;24.40;64.40;;;;;;6128973;23;19927;-80
2022/07/24 02:38:05;;;;;;;;;;;24.30;64.60;;;;;;6130375;23;19928;-83
2022/07/24 02:40:32;;;;;;;;;;;24.30;65.40;;;;;;6131274;23;19921;-83
2022/07/24 02:42:59;;;;;;;;;;;24.20;65.50;;;;;;6130921;23;20337;-86
2022/07/24 02:45:26;;;;;;;;;;;24.20;66.10;;;;;;6131286;23;19971;-83
2022/07/24 02:47:54;;;;;;;;;;;24.10;66.80;;;;;;6129711;23;19944;-83
2022/07/24 02:50:22;;;;;;;;;;;24.10;67.50;;;;;;6131918;23;19924;-80
2022/07/24 02:52:49;;;;;;;;;;;24.00;68.10;;;;;;6130224;23;19944;-81
2022/07/24 02:55:16;;;;;;;;;;;24.00;68.30;;;;;;6131494;23;20327;-86
2022/07/24 02:57:43;;;;;;;;;;;24.00;68.10;;;;;;6131119;23;19921;-86
2022/07/24 03:00:12;;;;;;;;;;;24.00;68.30;;;;;;6130253;23;19929;-81
2022/07/24 03:02:38;;;;;;;;;;;24.00;68.20;;;;;;6131279;23;19920;-83
2022/07/24 03:05:05;;;;;;;;;;;23.90;68.20;;;;;;6130542;23;19971;-81
2022/07/24 03:07:32;;;;;;;;;;;23.90;69.00;;;;;;6131724;23;19927;-86
2022/07/24 03:09:59;;;;;;;;;;;23.70;68.90;;;;;;6129704;23;19952;-87
2022/07/24 03:12:26;;;;;;;;;;;23.70;69.10;;;;;;6131710;23;20345;-82
2022/07/24 03:14:52;;;;;;;;;;;23.70;69.40;;;;;;6130112;23;19928;-82
2022/07/24 03:17:19;;;;;;;;;;;23.70;69.70;;;;;;6156489;23;19921;-82
2022/07/24 03:19:46;;;;;;;;;;;23.70;69.90;;;;;;6131122;23;20416;-86
2022/07/24 03:22:13;;;;;;;;;;;23.60;69.90;;;;;;6130405;23;19928;-83
2022/07/24 03:24:39;;;;;;;;;;;23.60;70.20;;;;;;6130431;23;19921;-80
2022/07/24 03:27:06;;;;;;;;;;;23.60;70.80;;;;;;6130413;23;20479;-82
2022/07/24 03:29:33;;;;;;;;;;;23.60;71.00;;;;;;6130330;23;19921;-81
2022/07/24 03:32:00;;;;;;;;;;;23.60;71.20;;;;;;6130381;23;19928;-81
2022/07/24 03:34:27;;;;;;;;;;;23.50;71.40;;;;;;6130927;23;19972;-81
2022/07/24 03:36:53;;;;;;;;;;;23.50;71.50;;;;;;6130793;23;19987;-80
2022/07/24 03:39:20;;;;;;;;;;;23.50;66.90;;;;;;6130728;23;19921;-80
2022/07/24 03:41:47;;;;;;;;;;;23.60;64.30;;;;;;6157009;23;19963;-81
2022/07/24 03:44:14;;;;;;;;;;;23.80;63.40;;;;;;6130426;23;19948;-86
2022/07/24 03:46:40;;;;;;;;;;;23.90;62.60;;;;;;6131075;23;19928;-86
2022/07/24 03:49:07;;;;;;;;;;;24.00;62.00;;;;;;6128701;23;19928;-83
2022/07/24 03:51:35;;;;;;;;;;;24.10;61.80;;;;;;6131007;23;19933;-86
2022/07/24 03:54:03;;;;;;;;;;;24.20;61.70;;;;;;6129660;23;19924;-83
2022/07/24 03:56:30;;;;;;;;;;;24.20;61.30;;;;;;6130204;23;19920;-81
2022/07/24 03:58:57;;;;;;;;;;;24.30;61.20;;;;;;6130140;23;20301;-83
2022/07/24 04:01:24;;;;;;;;;;;24.30;61.20;;;;;;6130891;23;19925;-86
2022/07/24 04:03:50;;;;;;;;;;;24.30;61.10;;;;;;6130676;23;19921;-80
2022/07/24 04:06:17;;;;;;;;;;;24.30;60.60;;;;;;6130183;23;20326;-83
2022/07/24 04:08:46;;;;;;;;;;;24.30;60.10;;;;;;6130874;23;19920;-86
2022/07/24 04:11:13;;;;;;;;;;;24.40;60.10;;;;;;6129408;23;20230;-81
2022/07/24 04:13:40;;;;;;;;;;;24.40;59.40;;;;;;6155659;23;19921;-80
2022/07/24 04:16:09;;;;;;;;;;;24.40;59.00;;;;;;6131647;23;19924;-87
2022/07/24 04:18:36;;;;;;;;;;;24.50;58.80;;;;;;6130334;23;19928;-86
2022/07/24 04:21:03;;;;;;;;;;;24.50;58.20;;;;;;6130233;23;19972;-83
2022/07/24 04:23:30;;;;;;;;;;;24.60;58.20;;;;;;6156675;23;19928;-84
2022/07/24 04:25:56;;;;;;;;;;;24.60;58.20;;;;;;6131064;23;19956;-83
2022/07/24 04:28:23;;;;;;;;;;;24.60;58.10;;;;;;6129164;23;19920;-83
2022/07/24 04:30:50;;;;;;;;;;;24.70;58.00;;;;;;6131016;23;19920;-87
2022/07/24 04:33:17;;;;;;;;;;;24.70;57.70;;;;;;6130005;23;19925;-87
2022/07/24 04:35:43;;;;;;;;;;;24.80;57.60;;;;;;6131060;23;19921;-81
2022/07/24 04:38:10;;;;;;;;;;;24.80;57.60;;;;;;6129445;23;20257;-83
2022/07/24 04:40:37;;;;;;;;;;;24.80;57.40;;;;;;6131302;23;19987;-84
2022/07/24 04:43:04;;;;;;;;;;;24.80;57.10;;;;;;6129490;23;19921;-86
2022/07/24 04:45:30;;;;;;;;;;;24.80;57.00;;;;;;6130371;23;19948;-80
2022/07/24 04:48:01;;;;;;;;;;;24.80;56.70;;;;;;6130398;23;20002;-81
2022/07/24 04:50:28;;;;;;;;;;;24.90;56.10;;;;;;6129098;23;19921;-81
2022/07/24 04:52:55;;;;;;;;;;;24.90;56.30;;;;;;6130883;23;19983;-83
2022/07/24 04:55:22;;;;;;;;;;;24.90;56.50;;;;;;6131004;23;19928;-84
2022/07/24 04:57:48;;;;;;;;;;;24.90;56.30;;;;;;6131940;23;19920;-83
2022/07/24 05:00:15;;;;;;;;;;;24.90;56.50;;;;;;6129224;23;19987;-84
2022/07/24 05:02:42;;;;;;;;;;;24.90;57.50;;;;;;6132163;23;19952;-83
2022/07/24 05:05:09;;;;;;;;;;;25.00;56.50;;;;;;6129156;23;19932;-81
2022/07/24 05:07:36;;;;;;;;;;;25.00;56.50;;;;;;6131221;23;19924;-86
2022/07/24 05:10:03;;;;;;;;;;;25.00;56.40;;;;;;6129411;23;19972;-86
2022/07/24 05:12:30;;;;;;;;;;;25.10;56.10;;;;;;6129613;23;19920;-80
2022/07/24 05:14:57;;;;;;;;;;;25.10;55.70;;;;;;6132193;23;19932;-87
2022/07/24 05:17:23;;;;;;;;;;;25.20;55.10;;;;;;6129023;23;19948;-83
2022/07/24 05:19:50;;;;;;;;;;;25.20;55.10;;;;;;6130779;23;19975;-81
2022/07/24 05:22:17;;;;;;;;;;;25.30;54.90;;;;;;6130749;23;19967;-83
2022/07/24 05:24:44;;;;;;;;;;;25.30;54.80;;;;;;6133047;23;20349;-83
2022/07/24 05:27:10;;;;;;;;;;;25.30;54.70;;;;;;6132015;23;19964;-80
2022/07/24 05:29:38;;;;;;;;;;;25.30;54.70;;;;;;6133047;23;19950;-81
2022/07/24 05:32:07;;;;;;;;;;;25.40;54.10;;;;;;6129234;23;19940;-81
2022/07/24 05:34:34;;;;;;;;;;;25.30;54.10;;;;;;6133452;23;19920;-81
2022/07/24 05:37:06;;;;;;;;;;;25.40;54.20;;;;;;6137297;23;19929;-81
2022/07/24 05:39:33;;;;;;;;;;;25.40;54.50;;;;;;6130009;23;20305;-81
2022/07/24 05:42:00;;;;;;;;;;;25.40;54.40;;;;;;6129186;23;19944;-81
2022/07/24 05:44:26;;;;;;;;;;;25.40;54.60;;;;;;6129667;23;19928;-84
2022/07/24 05:46:53;;;;;;;;;;;25.50;53.60;;;;;;6131191;23;20403;-83
2022/07/24 05:49:20;;;;;;;;;;;25.50;53.70;;;;;;6155999;23;19972;-86
2022/07/24 05:51:47;;;;;;;;;;;25.50;53.30;;;;;;6132686;23;19928;-84
2022/07/24 05:54:14;;;;;;;;;;;25.50;53.40;;;;;;6131696;23;19921;-82
2022/07/24 05:56:40;;;;;;;;;;;25.50;53.50;;;;;;6135043;23;20365;-86
2022/07/24 05:59:07;;;;;;;;;;;25.60;53.70;;;;;;6131375;23;19928;-81
2022/07/24 06:01:35;;;;;;;;;;;25.60;53.60;;;;;;6135426;23;20000;-86
2022/07/24 06:04:02;;;;;;;;;;;25.60;53.80;;;;;;6129454;23;19931;-81
2022/07/24 06:06:29;;;;;;;;;;;25.60;53.70;;;;;;6129877;23;19924;-84
2022/07/24 06:08:55;;;;;;;;;;;25.70;53.40;;;;;;6133340;23;20293;-84
2022/07/24 06:11:23;;;;;;;;;;;25.70;54.00;;;;;;6133448;23;20302;-83
2022/07/24 06:13:50;;;;;;;;;;;25.70;53.70;;;;;;6131501;23;19983;-84
2022/07/24 06:16:18;;;;;;;;;;;25.70;53.30;;;;;;6133273;23;19927;-84
2022/07/24 06:18:45;;;;;;;;;;;25.70;53.60;;;;;;6129306;23;19995;-86
2022/07/24 06:21:12;;;;;;;;;;;25.80;53.30;;;;;;6159494;23;19920;-84
2022/07/24 06:23:38;;;;;;;;;;;25.80;52.80;;;;;;6132805;23;19920;-82
2022/07/24 06:26:05;;;;;;;;;;;25.90;52.80;;;;;;6128738;23;19925;-81
2022/07/24 06:28:32;;;;;;;;;;;25.90;52.80;;;;;;6132397;23;19975;-86
2022/07/24 06:30:59;;;;;;;;;;;25.90;52.60;;;;;;6129266;23;19921;-81
2022/07/24 06:33:26;;;;;;;;;;;26.00;52.50;;;;;;6127832;23;19936;-81
2022/07/24 06:35:53;;;;;;;;;;;26.10;52.00;;;;;;6132351;23;19921;-84
2022/07/24 06:38:19;;;;;;;;;;;26.10;51.50;;;;;;6132386;23;20234;-82
2022/07/24 06:40:46;;;;;;;;;;;26.20;51.80;;;;;;6129159;23;20004;-85
2022/07/24 06:43:13;;;;;;;;;;;26.30;51.80;;;;;;6132195;23;19971;-84
2022/07/24 06:45:42;;;;;;;;;;;26.40;51.30;;;;;;6130115;23;19927;-86
2022/07/24 06:48:09;;;;;;;;;;;26.50;52.00;;;;;;6157462;23;19921;-85
2022/07/24 06:50:36;;;;;;;;;;;26.50;51.00;;;;;;6134062;23;20345;-82
2022/07/24 06:53:03;;;;;;;;;;;26.60;51.20;;;;;;6129005;23;19927;-82
2022/07/24 06:55:29;;;;;;;;;;;26.70;51.20;;;;;;6130887;23;19920;-81
2022/07/24 06:57:56;;;;;;;;;;;26.80;50.40;;;;;;6129584;23;19929;-85
2022/07/24 07:00:23;;;;;;;;;;;26.90;50.20;;;;;;6134199;23;19921;-84
2022/07/24 07:02:50;;;;;;;;;;;26.90;50.50;;;;;;6133092;23;19925;-85
2022/07/24 07:05:18;;;;;;;;;;;27.00;50.80;;;;;;6129691;23;19972;-82
2022/07/24 07:07:45;;;;;;;;;;;27.10;50.70;;;;;;6133118;23;19988;-81
2022/07/24 07:10:12;;;;;;;;;;;27.20;50.50;;;;;;6131118;23;20356;-86
2022/07/24 07:12:39;;;;;;;;;;;27.30;50.40;;;;;;6132713;23;20384;-82
2022/07/24 07:15:08;;;;;;;;;;;27.40;50.90;;;;;;6136219;23;19931;-81
2022/07/24 07:17:37;;;;;;;;;;;27.50;50.80;;;;;;6132091;23;20397;-84
2022/07/24 07:20:04;;;;;;;;;;;27.60;51.20;;;;;;6158763;23;19925;-81
2022/07/24 07:22:31;;;;;;;;;;;27.70;51.10;;;;;;6130826;23;19925;-85
2022/07/24 07:24:58;;;;;;;;;;;27.80;51.30;;;;;;6133901;23;19925;-84
2022/07/24 07:27:25;;;;;;;;;;;28.00;51.30;;;;;;6132549;23;19924;-86
2022/07/24 07:29:51;;;;;;;;;;;28.10;51.50;;;;;;6131197;23;19925;-86
2022/07/24 07:32:18;;;;;;;;;;;28.20;51.50;;;;;;6128563;23;19983;-83
2022/07/24 07:34:45;;;;;;;;;;;28.40;52.50;;;;;;6129606;23;19921;-81
2022/07/24 07:37:12;;;;;;;;;;;28.50;52.20;;;;;;6131690;23;19955;-85
2022/07/24 07:39:39;;;;;;;;;;;28.60;52.00;;;;;;6156954;23;20297;-86
2022/07/24 07:42:06;;;;;;;;;;;28.80;51.90;;;;;;6132606;23;20446;-82
2022/07/24 07:44:32;;;;;;;;;;;28.90;52.30;;;;;;6155095;23;19920;-81
2022/07/24 07:46:59;;;;;;;;;;;29.00;52.40;;;;;;6132266;23;19971;-86
2022/07/24 07:49:27;;;;;;;;;;;29.00;52.80;;;;;;6130097;23;20317;-82
2022/07/24 07:51:54;;;;;;;;;;;29.00;53.50;;;;;;6156512;23;19924;-82
2022/07/24 07:54:21;;;;;;;;;;;29.20;53.80;;;;;;6130351;23;20337;-86
2022/07/24 07:56:48;;;;;;;;;;;29.30;53.30;;;;;;6131216;23;20021;-83
2022/07/24 07:59:14;;;;;;;;;;;29.40;53.30;;;;;;6130036;23;19971;-85
2022/07/24 08:01:41;;;;;;;;;;;29.50;53.80;;;;;;6132953;23;19925;-84
2022/07/24 08:04:08;;;;;;;;;;;29.60;52.00;;;;;;6132066;23;19921;-84
2022/07/24 08:06:35;;;;;;;;;;;29.70;52.00;;;;;;6159344;23;19996;-84
2022/07/24 08:09:02;;;;;;;;;;;29.80;51.50;;;;;;6131221;23;19971;-82
2022/07/24 08:11:31;;;;;;;;;;;29.90;51.90;;;;;;6129323;23;19991;-82
2022/07/24 08:13:58;;;;;;;;;;;30.10;52.00;;;;;;6134852;23;19924;-85
2022/07/24 08:16:25;;;;;;;;;;;30.20;52.20;;;;;;6130453;23;19995;-83
2022/07/24 08:18:52;;;;;;;;;;;30.30;50.90;;;;;;6131779;23;19927;-82
2022/07/24 08:21:19;;;;;;;;;;;30.40;51.00;;;;;;6131341;23;19928;-83
2022/07/24 08:23:45;;;;;;;;;;;30.60;50.50;;;;;;6133227;23;20388;-81
2022/07/24 08:26:12;;;;;;;;;;;30.60;49.60;;;;;;6130755;23;19921;-83
2022/07/24 08:28:39;;;;;;;;;;;30.70;49.80;;;;;;6153924;23;19968;-85
2022/07/24 08:31:06;;;;;;;;;;;30.80;49.20;;;;;;6130490;23;20354;-85
2022/07/24 08:33:33;;;;;;;;;;;31.00;48.80;;;;;;6127681;23;19943;-83
2022/07/24 08:36:00;;;;;;;;;;;31.00;48.30;;;;;;6130745;23;19920;-84
2022/07/24 08:38:27;;;;;;;;;;;31.10;49.40;;;;;;6129088;23;20021;-83
2022/07/24 08:40:53;;;;;;;;;;;31.10;46.70;;;;;;6130288;23;19921;-83
2022/07/24 08:43:20;;;;;;;;;;;31.00;47.30;;;;;;6129504;23;19921;-84
2022/07/24 08:45:48;;;;;;;;;;;31.00;47.80;;;;;;6128523;23;19924;-83
2022/07/24 08:48:15;;;;;;;;;;;31.10;47.30;;;;;;6129621;23;19948;-86
2022/07/24 08:50:44;;;;;;;;;;;31.20;47.60;;;;;;6128994;23;19924;-85
2022/07/24 08:53:10;;;;;;;;;;;31.20;48.10;;;;;;6129312;23;19951;-82
2022/07/24 08:55:38;;;;;;;;;;;31.30;46.90;;;;;;6128768;23;20374;-85
2022/07/24 08:58:04;;;;;;;;;;;31.40;47.00;;;;;;6129886;23;20338;-84
2022/07/24 09:00:32;;;;;;;;;;;31.40;46.60;;;;;;6129064;23;19924;-82
2022/07/24 09:02:59;;;;;;;;;;;31.50;47.20;;;;;;6129979;23;19921;-84
2022/07/24 09:05:26;;;;;;;;;;;31.60;47.00;;;;;;6129344;23;19931;-84
2022/07/24 09:08:14;;;;;;;;;;;31.80;47.00;;;;;;6129808;23;20322;-85
2022/07/24 09:10:52;;;;;;;;;;;31.80;46.60;;;;;;6127814;23;20332;-84
2022/07/24 09:13:19;;;;;;;;;;;31.80;46.90;;;;;;6129672;23;19920;-84
2022/07/24 09:15:47;;;;;;;;;;;31.90;47.10;;;;;;6128447;23;22138;-85
2022/07/24 09:18:31;;;;;;;;;;;32.10;47.50;;;;;;6129234;23;19928;-85
2022/07/24 09:21:10;;;;;;;;;;;32.20;46.70;;;;;;6129272;23;19920;-83
2022/07/24 09:23:38;;;;;;;;;;;32.30;47.40;;;;;;6128612;23;19921;-84
2022/07/24 09:26:04;;;;;;;;;;;32.40;46.20;;;;;;6126910;23;19963;-86
2022/07/24 09:28:51;;;;;;;;;;;32.40;46.30;;;;;;6128727;23;19975;-84
2022/07/24 09:31:18;;;;;;;;;;;32.60;46.50;;;;;;6127527;23;19987;-85
2022/07/24 09:33:45;;;;;;;;;;;32.60;45.90;;;;;;6151395;23;20365;-84
2022/07/24 09:36:13;;;;;;;;;;;32.70;45.30;;;;;;6127740;23;19988;-84
2022/07/24 09:38:45;;;;;;;;;;;32.60;45.60;;;;;;6129315;23;19921;-83
2022/07/24 09:41:18;;;;;;;;;;;32.60;46.00;;;;;;6127643;23;20338;-83
2022/07/24 09:43:45;;;;;;;;;;;32.70;45.20;;;;;;6127751;23;19925;-83
2022/07/24 09:46:14;;;;;;;;;;;32.90;45.60;;;;;;6128171;23;19992;-84
2022/07/24 09:48:41;;;;;;;;;;;33.00;45.50;;;;;;6129074;23;19920;-86
2022/07/24 09:51:12;;;;;;;;;;;33.20;44.70;;;;;;6128530;23;19928;-84
2022/07/24 09:53:40;;;;;;;;;;;33.30;44.40;;;;;;6129768;23;19920;-84
2022/07/24 09:56:09;;;;;;;;;;;33.30;44.30;;;;;;6128575;23;20309;-85
2022/07/24 09:58:56;;;;;;;;;;;33.40;44.10;;;;;;6129002;23;19925;-83
2022/07/24 10:01:25;;;;;;;;;;;33.50;43.60;;;;;;6128316;23;20013;-84
2022/07/24 10:03:53;;;;;;;;;;;33.60;44.30;;;;;;6128322;23;19920;-85
2022/07/24 10:06:21;;;;;;;;;;;33.70;42.80;;;;;;6127195;23;19921;-84
2022/07/24 10:08:49;;;;;;;;;;;33.70;43.10;;;;;;6128982;23;19924;-84
2022/07/24 10:11:16;;;;;;;;;;;33.80;42.90;;;;;;6128733;23;19925;-83
2022/07/24 10:13:43;;;;;;;;;;;33.90;42.50;;;;;;6127024;23;19920;-81
2022/07/24 10:16:13;;;;;;;;;;;33.90;42.50;;;;;;6127424;23;19948;-83
2022/07/24 10:18:54;;;;;;;;;;;34.00;42.20;;;;;;6132102;23;20290;-85
2022/07/24 10:21:25;;;;;;;;;;;34.10;42.30;;;;;;6126625;23;20265;-82
2022/07/24 10:24:01;;;;;;;;;;;34.20;41.90;;;;;;6128929;23;20000;-82
2022/07/24 10:26:36;;;;;;;;;;;34.20;41.10;;;;;;6129947;23;19924;-83
2022/07/24 10:29:10;;;;;;;;;;;34.20;41.70;;;;;;6128363;23;19920;-84
2022/07/24 10:31:38;;;;;;;;;;;34.30;41.40;;;;;;6129295;23;19925;-85
2022/07/24 10:34:09;;;;;;;;;;;34.40;41.10;;;;;;6129281;23;19996;-84
2022/07/24 10:36:48;;;;;;;;;;;34.40;41.80;;;;;;6128410;23;19924;-81
2022/07/24 10:39:35;;;;;;;;;;;34.50;40.80;;;;;;6154353;23;19925;-85
2022/07/24 10:42:03;;;;;;;;;;;34.50;41.10;;;;;;6154571;23;19921;-84
2022/07/24 10:44:31;;;;;;;;;;;34.60;40.70;;;;;;6127121;23;19971;-84
2022/07/24 10:46:58;;;;;;;;;;;34.70;39.60;;;;;;6154533;23;19924;-84
2022/07/24 10:49:42;;;;;;;;;;;34.60;41.00;;;;;;6129019;23;19920;-85
2022/07/24 10:52:11;;;;;;;;;;;34.60;40.20;;;;;;6129008;23;19920;-81
2022/07/24 10:54:38;;;;;;;;;;;34.60;40.80;;;;;;6128163;23;20301;-80
2022/07/24 10:57:05;;;;;;;;;;;34.70;39.80;;;;;;6128574;23;19925;-81
2022/07/24 10:59:36;;;;;;;;;;;34.70;39.90;;;;;;6130294;23;20274;-82
2022/07/24 11:02:22;;;;;;;;;;;34.80;40.40;;;;;;6130491;23;19921;-82
2022/07/24 11:05:09;;;;;;;;;;;35.00;40.10;;;;;;6129746;23;19921;-84
2022/07/24 11:07:36;;;;;;;;;;;35.30;38.80;;;;;;6154770;23;19944;-84
2022/07/24 11:10:07;;;;;;;;;;;35.50;39.50;;;;;;6131110;23;20335;-85
2022/07/24 11:12:42;;;;;;;;;;;35.40;38.60;;;;;;6129949;23;20254;-84
2022/07/24 11:18:12;;;;;;;;;;;35.60;38.60;;;;;;6155958;23;19987;-81
2022/07/24 11:20:39;;;;;;;;;;;35.60;37.60;;;;;;6129689;23;20265;-85
2022/07/24 11:23:18;;;;;;;;;;;35.70;38.00;;;;;;6130659;23;19924;-84
2022/07/24 11:25:49;;;;;;;;;;;35.90;37.30;;;;;;6130922;23;19921;-83
2022/07/24 11:28:16;;;;;;;;;;;35.70;36.90;;;;;;6130585;23;20323;-83
2022/07/24 11:30:43;;;;;;;;;;;35.70;38.20;;;;;;6130657;23;20334;-84
2022/07/24 11:33:11;;;;;;;;;;;35.80;37.70;;;;;;6130037;23;19971;-81
2022/07/24 11:35:38;;;;;;;;;;;35.80;37.10;;;;;;6129607;23;19921;-84
2022/07/24 11:38:06;;;;;;;;;;;35.70;37.20;;;;;;6129978;23;19928;-83
2022/07/24 11:40:34;;;;;;;;;;;35.50;37.40;;;;;;6131438;23;19920;-85
2022/07/24 11:43:03;;;;;;;;;;;35.30;37.70;;;;;;6130407;23;20330;-84
2022/07/24 11:45:36;;;;;;;;;;;35.10;37.90;;;;;;6136306;23;19925;-82
2022/07/24 11:48:03;;;;;;;;;;;35.10;38.80;;;;;;6130782;23;19992;-82
2022/07/24 11:50:32;;;;;;;;;;;35.10;38.40;;;;;;6158724;23;19920;-82
2022/07/24 11:52:59;;;;;;;;;;;35.20;38.80;;;;;;6132352;23;20246;-84
2022/07/24 11:55:26;;;;;;;;;;;35.30;38.00;;;;;;6133024;23;20417;-82
2022/07/24 11:57:53;;;;;;;;;;;35.40;37.80;;;;;;6129714;23;19944;-83
2022/07/24 12:00:40;;;;;;;;;;;35.50;37.70;;;;;;6135674;23;19995;-84
2022/07/24 12:03:07;;;;;;;;;;;35.60;36.50;;;;;;6132017;23;20253;-84
2022/07/24 12:05:37;;;;;;;;;;;35.70;37.00;;;;;;6132572;23;19925;-82
2022/07/24 12:08:15;;;;;;;;;;;35.80;36.60;;;;;;6156699;23;20258;-84
2022/07/24 12:10:42;;;;;;;;;;;36.00;37.20;;;;;;6130973;23;19925;-84
2022/07/24 12:13:08;;;;;;;;;;;36.10;36.50;;;;;;6132550;23;19924;-83
2022/07/24 12:15:37;;;;;;;;;;;36.10;36.00;;;;;;6129988;23;19925;-84
2022/07/24 12:18:06;;;;;;;;;;;36.20;37.10;;;;;;6129652;23;19926;-83
2022/07/24 12:20:40;;;;;;;;;;;36.50;36.70;;;;;;6130513;23;19920;-85
2022/07/24 12:23:13;;;;;;;;;;;36.70;34.30;;;;;;6130389;23;19920;-85
2022/07/24 12:25:40;;;;;;;;;;;36.60;34.30;;;;;;6131886;23;19921;-82
2022/07/24 12:28:11;;;;;;;;;;;36.60;34.70;;;;;;6129828;23;20013;-85
2022/07/24 12:30:39;;;;;;;;;;;36.50;34.60;;;;;;6130082;23;19924;-86
2022/07/24 12:33:08;;;;;;;;;;;36.50;34.30;;;;;;6130028;23;19991;-85
2022/07/24 12:35:52;;;;;;;;;;;36.60;35.30;;;;;;6131018;23;19944;-86
2022/07/24 12:38:23;;;;;;;;;;;36.70;34.30;;;;;;6129482;23;19944;-85
2022/07/24 12:40:49;;;;;;;;;;;36.70;33.90;;;;;;6129683;23;19921;-85
2022/07/24 12:43:16;;;;;;;;;;;36.90;34.00;;;;;;6130199;23;19924;-85
2022/07/24 12:45:43;;;;;;;;;;;37.10;34.30;;;;;;6130682;23;19921;-85
2022/07/24 12:48:16;;;;;;;;;;;37.30;33.20;;;;;;6129205;23;19971;-84
2022/07/24 12:50:57;;;;;;;;;;;37.20;33.90;;;;;;6129964;23;19925;-83
2022/07/24 12:53:25;;;;;;;;;;;37.20;33.80;;;;;;6117233;23;19972;-84
2022/07/24 12:56:01;;;;;;;;;;;37.20;33.80;;;;;;6129826;23;19928;-82
2022/07/24 12:58:28;;;;;;;;;;;37.40;33.20;;;;;;6129209;23;19920;-84
2022/07/24 13:00:58;;;;;;;;;;;37.60;33.90;;;;;;6129888;23;20306;-83
2022/07/24 13:03:26;;;;;;;;;;;37.60;33.00;;;;;;6129064;23;19927;-84
2022/07/24 13:05:56;;;;;;;;;;;37.50;32.60;;;;;;6130222;23;19925;-85
2022/07/24 13:08:22;;;;;;;;;;;37.40;32.90;;;;;;6129180;23;19924;-85
2022/07/24 13:10:49;;;;;;;;;;;37.60;33.10;;;;;;6156297;23;19975;-83
2022/07/24 13:13:16;;;;;;;;;;;37.90;33.90;;;;;;6129270;23;19925;-83
2022/07/24 13:15:43;;;;;;;;;;;38.20;33.40;;;;;;6129752;23;19929;-83
2022/07/24 13:18:09;;;;;;;;;;;38.40;32.70;;;;;;6130119;23;20257;-84
2022/07/24 13:20:36;;;;;;;;;;;38.40;32.00;;;;;;6129939;23;20305;-83
2022/07/24 13:23:10;;;;;;;;;;;38.30;31.60;;;;;;6130006;23;19920;-83
2022/07/24 13:25:37;;;;;;;;;;;38.10;31.60;;;;;;6129552;23;19929;-83
2022/07/24 13:28:04;;;;;;;;;;;37.90;31.60;;;;;;6129791;23;20341;-82
2022/07/24 13:30:39;;;;;;;;;;;37.90;32.00;;;;;;6130687;23;19920;-85
2022/07/24 13:33:06;;;;;;;;;;;37.90;31.70;;;;;;6129798;23;20011;-84
2022/07/24 13:35:34;;;;;;;;;;;37.80;31.60;;;;;;6128442;23;19920;-84
2022/07/24 13:38:01;;;;;;;;;;;37.90;32.20;;;;;;6129681;23;19947;-85
2022/07/24 13:40:30;;;;;;;;;;;38.00;31.90;;;;;;6129220;23;19956;-83
2022/07/24 13:42:56;;;;;;;;;;;38.00;31.10;;;;;;6128937;23;19976;-83
2022/07/24 13:45:28;;;;;;;;;;;38.00;32.90;;;;;;6129512;23;19921;-85
2022/07/24 13:47:55;;;;;;;;;;;38.00;32.50;;;;;;6129394;23;20223;-85
2022/07/24 13:50:22;;;;;;;;;;;38.10;31.90;;;;;;6128458;23;19948;-82
2022/07/24 13:52:48;;;;;;;;;;;38.30;31.00;;;;;;6129341;23;19924;-85
2022/07/24 13:55:15;;;;;;;;;;;38.60;30.80;;;;;;6128929;23;19971;-82
2022/07/24 13:57:42;;;;;;;;;;;38.70;30.50;;;;;;6128853;23;19928;-84
2022/07/24 14:00:09;;;;;;;;;;;38.90;30.30;;;;;;6128959;23;19929;-83
2022/07/24 14:02:36;;;;;;;;;;;38.90;30.20;;;;;;6128582;23;19960;-85
2022/07/24 14:05:03;;;;;;;;;;;38.60;30.80;;;;;;6129193;23;19928;-84
2022/07/24 14:07:31;;;;;;;;;;;38.50;30.50;;;;;;6128824;23;19953;-85
2022/07/24 14:09:58;;;;;;;;;;;38.50;31.10;;;;;;6129589;23;19952;-84
2022/07/24 14:12:25;;;;;;;;;;;38.60;32.40;;;;;;6128367;23;19972;-85
2022/07/24 14:14:52;;;;;;;;;;;38.60;33.30;;;;;;6129534;23;19924;-85
2022/07/24 14:17:19;;;;;;;;;;;38.50;33.40;;;;;;6127883;23;19924;-82
2022/07/24 14:19:45;;;;;;;;;;;38.20;33.10;;;;;;6129304;23;19940;-84
2022/07/24 14:22:12;;;;;;;;;;;38.00;33.60;;;;;;6129052;23;19991;-84
2022/07/24 14:24:40;;;;;;;;;;;38.10;34.40;;;;;;6128209;23;19940;-84